createdAt,value
2017-12-11T00:00:17.142Z,1.30
2017-12-11T00:02:45.234Z,1.30
2017-12-11T00:05:13.555Z,1.30
2017-12-11T00:07:41.884Z,1.30
2017-12-11T00:10:10.170Z,1.40
2017-12-11T00:12:38.490Z,1.50
2017-12-11T00:15:06.774Z,1.60
2017-12-11T00:17:35.094Z,1.70
2017-12-11T00:20:03.370Z,1.70
2017-12-11T00:22:43.627Z,1.70
2017-12-11T00:25:11.902Z,1.70
2017-12-11T00:27:40.222Z,1.80
2017-12-11T00:30:08.507Z,1.80
2017-12-11T00:32:36.818Z,1.90
2017-12-11T00:35:05.108Z,1.90
2017-12-11T00:37:34.715Z,2.10
2017-12-11T00:40:03.006Z,2.10
2017-12-11T00:42:31.303Z,2.10
2017-12-11T00:44:59.618Z,2.10
2017-12-11T00:47:28.890Z,2.20
2017-12-11T00:49:57.182Z,2.20
2017-12-11T00:52:25.464Z,2.20
2017-12-11T00:54:53.787Z,2.30
2017-12-11T00:57:22.874Z,2.30
2017-12-11T00:59:51.207Z,2.30
2017-12-11T01:02:19.491Z,2.30
2017-12-11T01:04:47.814Z,2.30
2017-12-11T01:07:16.142Z,2.20
2017-12-11T01:09:44.422Z,2.20
2017-12-11T01:12:12.719Z,2.20
2017-12-11T01:14:41.044Z,2.20
2017-12-11T01:17:09.392Z,2.20
2017-12-11T01:19:37.714Z,2.20
2017-12-11T01:22:06.807Z,2.10
2017-12-11T01:24:35.894Z,2.10
2017-12-11T01:27:04.278Z,2.10
2017-12-11T01:29:33.571Z,2.10
2017-12-11T01:32:01.851Z,2.20
2017-12-11T01:34:30.139Z,2.10
2017-12-11T01:36:58.567Z,2.00
2017-12-11T01:39:26.886Z,2.10
2017-12-11T01:41:55.934Z,2.10
2017-12-11T01:44:24.262Z,2.10
2017-12-11T01:46:52.587Z,2.10
2017-12-11T01:49:20.923Z,2.20
2017-12-11T01:51:49.206Z,2.20
2017-12-11T01:54:17.526Z,2.40
2017-12-11T01:56:45.811Z,2.50
2017-12-11T01:59:14.136Z,2.60
2017-12-11T02:01:42.422Z,2.60
2017-12-11T02:04:10.705Z,2.70
2017-12-11T02:06:39.033Z,2.70
2017-12-11T02:09:07.376Z,2.70
2017-12-11T02:11:36.427Z,2.80
2017-12-11T02:14:04.707Z,2.80
2017-12-11T02:16:33.042Z,2.90
2017-12-11T02:19:01.358Z,3.00
2017-12-11T02:21:29.642Z,3.10
2017-12-11T02:24:00.723Z,3.10
2017-12-11T02:26:29.043Z,3.10
2017-12-11T02:28:57.323Z,3.20
2017-12-11T02:31:25.730Z,3.20
2017-12-11T02:33:54.127Z,3.30
2017-12-11T02:36:22.422Z,3.40
2017-12-11T02:38:50.755Z,3.40
2017-12-11T02:41:19.030Z,3.40
2017-12-11T02:43:47.326Z,3.40
2017-12-11T02:46:16.402Z,3.70
2017-12-11T02:48:44.678Z,3.60
2017-12-11T02:51:13.004Z,3.80
2017-12-11T02:53:42.047Z,3.80
2017-12-11T02:56:10.578Z,3.80
2017-12-11T02:58:38.871Z,3.80
2017-12-11T03:01:07.923Z,3.90
2017-12-11T03:03:36.226Z,3.90
2017-12-11T03:06:04.544Z,4.00
2017-12-11T03:08:32.826Z,4.00
2017-12-11T03:11:01.143Z,4.00
2017-12-11T03:13:29.414Z,4.00
2017-12-11T03:15:57.742Z,4.00
2017-12-11T03:18:26.018Z,4.10
2017-12-11T03:20:55.158Z,4.20
2017-12-11T03:23:23.498Z,4.20
2017-12-11T03:25:53.332Z,4.20
2017-12-11T03:28:21.611Z,4.20
2017-12-11T03:30:50.036Z,4.10
2017-12-11T03:33:19.102Z,4.20
2017-12-11T03:35:47.387Z,4.20
2017-12-11T03:38:15.707Z,4.20
2017-12-11T03:40:44.822Z,4.30
2017-12-11T03:43:13.899Z,4.30
2017-12-11T03:45:42.213Z,4.30
2017-12-11T03:48:11.295Z,4.30
2017-12-11T03:50:39.616Z,4.30
2017-12-11T03:53:08.666Z,4.30
2017-12-11T03:55:36.991Z,4.30
2017-12-11T03:58:05.268Z,4.20
2017-12-11T04:00:33.544Z,4.30
2017-12-11T04:03:01.908Z,4.30
2017-12-11T04:05:30.243Z,4.30
2017-12-11T04:08:00.022Z,4.30
2017-12-11T04:10:28.350Z,4.30
2017-12-11T04:12:56.628Z,4.40
2017-12-11T04:15:24.960Z,4.40
2017-12-11T04:17:54.002Z,4.40
2017-12-11T04:20:22.358Z,4.40
2017-12-11T04:22:51.416Z,4.40
2017-12-11T04:25:19.718Z,4.40
2017-12-11T04:27:48.047Z,4.30
2017-12-11T04:30:17.090Z,4.30
2017-12-11T04:32:45.610Z,4.30
2017-12-11T04:35:13.902Z,4.30
2017-12-11T04:37:42.181Z,4.30
2017-12-11T04:40:10.611Z,4.30
2017-12-11T04:42:39.658Z,4.30
2017-12-11T04:45:07.934Z,4.30
2017-12-11T04:47:37.457Z,4.30
2017-12-11T04:50:05.739Z,4.30
2017-12-11T04:52:34.179Z,4.40
2017-12-11T04:55:02.467Z,4.40
2017-12-11T04:57:30.743Z,4.30
2017-12-11T04:59:59.066Z,4.40
2017-12-11T05:02:28.118Z,4.40
2017-12-11T05:04:56.403Z,4.40
2017-12-11T05:07:24.839Z,4.50
2017-12-11T05:09:53.115Z,4.60
2017-12-11T05:12:21.386Z,4.60
2017-12-11T05:14:49.710Z,4.60
2017-12-11T05:17:18.037Z,4.60
2017-12-11T05:19:46.391Z,4.80
2017-12-11T05:22:14.675Z,4.60
2017-12-11T05:24:42.967Z,4.70
2017-12-11T05:27:11.453Z,4.80
2017-12-11T05:29:39.727Z,4.80
2017-12-11T05:32:08.003Z,4.80
2017-12-11T05:34:36.313Z,4.70
2017-12-11T05:37:04.599Z,4.70
2017-12-11T05:39:32.926Z,4.80
2017-12-11T05:42:01.970Z,4.70
2017-12-11T05:44:30.245Z,4.70
2017-12-11T05:46:58.569Z,4.70
2017-12-11T05:49:26.895Z,4.60
2017-12-11T05:51:55.982Z,4.60
2017-12-11T05:54:24.366Z,4.60
2017-12-11T05:56:52.648Z,4.60
2017-12-11T05:59:20.966Z,4.40
2017-12-11T06:01:49.250Z,4.30
2017-12-11T06:04:17.526Z,4.30
2017-12-11T06:06:45.859Z,4.20
2017-12-11T06:09:14.899Z,4.00
2017-12-11T06:11:43.187Z,4.00
2017-12-11T06:14:11.509Z,4.10
2017-12-11T06:16:39.786Z,4.00
2017-12-11T06:19:08.067Z,4.00
2017-12-11T06:21:36.383Z,4.00
2017-12-11T06:24:04.755Z,4.00
2017-12-11T06:26:33.076Z,4.00
2017-12-11T06:29:02.155Z,3.80
2017-12-11T06:31:30.470Z,3.80
2017-12-11T06:33:58.739Z,3.80
2017-12-11T06:36:27.223Z,3.70
2017-12-11T06:38:55.520Z,3.70
2017-12-11T06:41:23.795Z,3.60
2017-12-11T06:43:52.119Z,3.50
2017-12-11T06:46:21.168Z,3.40
2017-12-11T06:48:49.479Z,3.40
2017-12-11T06:51:17.791Z,3.40
2017-12-11T06:53:46.166Z,3.30
2017-12-11T06:56:14.663Z,3.30
2017-12-11T06:58:42.939Z,3.30
2017-12-11T07:01:11.238Z,3.20
2017-12-11T07:03:39.567Z,3.10
2017-12-11T07:06:08.616Z,3.10
2017-12-11T07:08:36.899Z,3.10
2017-12-11T07:11:05.299Z,3.10
2017-12-11T07:13:33.578Z,3.00
2017-12-11T07:16:01.995Z,3.10
2017-12-11T07:18:30.271Z,3.10
2017-12-11T07:20:58.600Z,3.00
2017-12-11T07:23:26.879Z,3.10
2017-12-11T07:25:55.258Z,3.10
2017-12-11T07:28:23.587Z,3.10
2017-12-11T07:30:52.678Z,3.10
2017-12-11T07:33:21.722Z,3.10
2017-12-11T07:35:50.062Z,3.10
2017-12-11T07:38:18.342Z,3.10
2017-12-11T07:40:48.162Z,3.00
2017-12-11T07:43:16.474Z,3.00
2017-12-11T07:45:44.862Z,3.00
2017-12-11T07:48:13.137Z,3.00
2017-12-11T07:50:42.191Z,2.90
2017-12-11T07:53:10.498Z,2.90
2017-12-11T07:55:38.788Z,2.90
2017-12-11T07:58:07.119Z,3.00
2017-12-11T08:00:35.394Z,3.00
2017-12-11T08:03:03.740Z,2.90
2017-12-11T08:05:32.025Z,2.90
2017-12-11T08:08:00.303Z,2.90
2017-12-11T08:10:29.390Z,2.90
2017-12-11T08:12:57.734Z,2.90
2017-12-11T08:15:26.014Z,2.90
2017-12-11T08:17:54.299Z,3.00
2017-12-11T08:20:22.630Z,3.00
2017-12-11T08:22:50.978Z,3.00
2017-12-11T08:25:19.263Z,3.10
2017-12-11T08:27:47.543Z,3.20
2017-12-11T08:30:15.855Z,3.30
2017-12-11T08:32:44.169Z,3.30
2017-12-11T08:35:12.451Z,3.30
2017-12-11T08:37:40.850Z,3.30
2017-12-11T08:40:09.131Z,3.30
2017-12-11T08:42:37.407Z,3.30
2017-12-11T08:45:05.757Z,3.30
2017-12-11T08:47:34.808Z,3.40
2017-12-11T08:50:03.091Z,3.30
2017-12-11T08:52:31.407Z,3.40
2017-12-11T08:55:01.195Z,3.50
2017-12-11T08:57:29.510Z,3.50
2017-12-11T08:59:57.852Z,3.50
2017-12-11T09:02:26.138Z,3.60
2017-12-11T09:04:54.422Z,3.70
2017-12-11T09:07:23.528Z,3.90
2017-12-11T09:09:52.576Z,4.00
2017-12-11T09:12:20.850Z,3.90
2017-12-11T09:14:49.168Z,4.00
2017-12-11T09:17:17.475Z,4.00
2017-12-11T09:19:45.758Z,4.10
2017-12-11T09:22:14.085Z,4.10
2017-12-11T09:24:43.170Z,4.20
2017-12-11T09:27:11.452Z,4.20
2017-12-11T09:29:39.840Z,4.20
2017-12-11T09:32:08.123Z,4.20
2017-12-11T09:34:36.456Z,4.30
2017-12-11T09:37:09.430Z,4.40
2017-12-11T09:39:37.808Z,4.30
2017-12-11T09:42:06.087Z,4.30
2017-12-11T09:44:34.407Z,4.30
2017-12-11T09:47:03.498Z,4.50
2017-12-11T09:49:33.115Z,4.50
2017-12-11T09:52:01.395Z,4.50
2017-12-11T09:54:29.730Z,4.50
2017-12-11T09:56:58.779Z,4.40
2017-12-11T09:59:27.058Z,4.40
2017-12-11T10:01:55.496Z,4.50
2017-12-11T10:04:23.819Z,4.50
2017-12-11T10:06:52.094Z,4.50
2017-12-11T10:09:20.415Z,4.50
2017-12-11T10:11:48.703Z,4.50
2017-12-11T10:14:17.027Z,4.50
2017-12-11T10:16:45.302Z,4.50
2017-12-11T10:19:13.574Z,4.50
2017-12-11T10:21:41.898Z,4.50
2017-12-11T10:24:10.221Z,4.60
2017-12-11T10:26:38.475Z,4.60
2017-12-11T10:29:06.799Z,4.60
2017-12-11T10:31:35.947Z,4.70
2017-12-11T10:34:04.275Z,4.70
2017-12-11T10:36:32.590Z,4.80
2017-12-11T10:39:00.880Z,4.80
2017-12-11T10:41:29.194Z,4.80
2017-12-11T10:43:57.471Z,4.70
2017-12-11T10:46:25.787Z,4.70
2017-12-11T10:48:54.092Z,4.70
2017-12-11T10:51:22.409Z,4.70
2017-12-11T10:53:51.456Z,4.70
2017-12-11T10:56:19.775Z,4.70
2017-12-11T10:58:48.095Z,4.60
2017-12-11T11:01:17.170Z,4.60
2017-12-11T11:03:45.454Z,4.60
2017-12-11T11:06:13.779Z,4.60
2017-12-11T11:08:42.827Z,4.50
2017-12-11T11:11:11.151Z,4.50
2017-12-11T11:13:39.474Z,4.50
2017-12-11T11:16:08.519Z,4.60
2017-12-11T11:18:36.839Z,4.50
2017-12-11T11:21:05.122Z,4.50
2017-12-11T11:23:33.519Z,4.60
2017-12-11T11:26:01.792Z,4.60
2017-12-11T11:28:30.142Z,4.50
2017-12-11T11:30:58.432Z,4.50
2017-12-11T11:33:26.776Z,4.50
2017-12-11T11:35:56.383Z,4.50
2017-12-11T11:38:24.672Z,4.60
2017-12-11T11:40:53.007Z,4.50
2017-12-11T11:43:22.051Z,4.40
2017-12-11T11:45:50.334Z,4.40
2017-12-11T11:48:18.658Z,4.40
2017-12-11T11:50:48.504Z,4.60
2017-12-11T11:53:17.588Z,4.50
2017-12-11T11:55:45.915Z,4.50
2017-12-11T11:58:14.982Z,4.40
2017-12-11T12:00:43.383Z,4.40
2017-12-11T12:03:11.666Z,4.50
2017-12-11T12:05:39.942Z,4.40
2017-12-11T12:08:08.351Z,4.40
2017-12-11T12:10:36.739Z,4.40
2017-12-11T12:13:05.028Z,4.30
2017-12-11T12:15:34.119Z,4.20
2017-12-11T12:18:02.397Z,4.20
2017-12-11T12:20:30.684Z,4.00
2017-12-11T12:22:59.001Z,3.80
2017-12-11T12:25:28.841Z,3.80
2017-12-11T12:27:57.130Z,3.80
2017-12-11T12:30:25.410Z,3.80
2017-12-11T12:32:53.726Z,3.80
2017-12-11T12:35:22.822Z,4.10
2017-12-11T12:37:51.874Z,4.10
2017-12-11T12:40:20.198Z,4.10
2017-12-11T12:42:48.520Z,4.00
2017-12-11T12:45:17.671Z,3.90
2017-12-11T12:47:45.951Z,3.80
2017-12-11T12:50:14.274Z,3.70
2017-12-11T12:52:42.554Z,3.60
2017-12-11T12:55:12.170Z,3.70
2017-12-11T12:57:40.450Z,3.60
2017-12-11T13:00:08.742Z,3.60
2017-12-11T13:02:37.067Z,3.50
2017-12-11T13:05:05.408Z,3.60
2017-12-11T13:07:33.726Z,3.60
2017-12-11T13:10:02.012Z,3.50
2017-12-11T13:12:30.402Z,3.50
2017-12-11T13:14:58.678Z,3.60
2017-12-11T13:17:27.030Z,3.60
2017-12-11T13:19:55.322Z,3.50
2017-12-11T13:22:24.899Z,3.60
2017-12-11T13:24:53.182Z,3.50
2017-12-11T13:27:21.459Z,3.50
2017-12-11T13:29:49.782Z,3.50
2017-12-11T13:32:18.834Z,3.50
2017-12-11T13:34:47.254Z,3.40
2017-12-11T13:37:15.539Z,3.70
2017-12-11T13:39:43.822Z,3.60
2017-12-11T13:42:12.138Z,3.50
2017-12-11T13:44:41.231Z,3.50
2017-12-11T13:47:09.555Z,3.50
2017-12-11T13:49:37.838Z,3.50
2017-12-11T13:52:06.158Z,3.50
2017-12-11T13:54:34.443Z,3.30
2017-12-11T13:57:02.726Z,3.30
2017-12-11T13:59:32.691Z,3.20
2017-12-11T14:02:00.970Z,3.20
2017-12-11T14:04:29.307Z,3.20
2017-12-11T14:06:57.658Z,3.20
2017-12-11T14:09:27.451Z,3.10
2017-12-11T14:11:55.814Z,3.10
2017-12-11T14:14:24.277Z,3.10
2017-12-11T14:16:52.568Z,3.10
2017-12-11T14:19:22.396Z,3.10
2017-12-11T14:21:51.473Z,3.20
2017-12-11T14:24:19.757Z,3.20
2017-12-11T14:26:48.075Z,3.10
2017-12-11T14:29:16.363Z,3.00
2017-12-11T14:31:44.684Z,3.00
2017-12-11T14:34:12.959Z,3.10
2017-12-11T14:36:42.056Z,3.10
2017-12-11T14:39:10.386Z,3.10
2017-12-11T14:41:38.663Z,3.30
2017-12-11T14:44:06.947Z,3.20
2017-12-11T14:46:35.283Z,3.10
2017-12-11T14:49:03.587Z,3.20
2017-12-11T14:51:31.914Z,3.20
2017-12-11T14:54:00.960Z,3.30
2017-12-11T14:56:29.295Z,3.30
2017-12-11T14:58:58.342Z,3.30
2017-12-11T15:01:26.680Z,3.20
2017-12-11T15:03:55.027Z,3.30
2017-12-11T15:06:23.320Z,3.20
2017-12-11T15:08:51.612Z,3.20
2017-12-11T15:11:20.322Z,3.30
2017-12-11T15:13:48.649Z,3.20
2017-12-11T15:16:17.738Z,3.20
2017-12-11T15:18:46.022Z,3.20
2017-12-11T15:21:14.347Z,3.20
2017-12-11T15:23:42.631Z,3.10
2017-12-11T15:26:11.742Z,3.20
2017-12-11T15:28:40.036Z,3.10
2017-12-11T15:31:08.327Z,3.20
2017-12-11T15:33:36.682Z,3.20
2017-12-11T15:36:04.971Z,3.30
2017-12-11T15:38:33.263Z,3.30
2017-12-11T15:41:01.595Z,3.50
2017-12-11T15:43:29.891Z,3.50
2017-12-11T15:45:58.243Z,3.40
2017-12-11T15:48:27.298Z,3.50
2017-12-11T15:50:55.590Z,3.50
2017-12-11T15:53:23.931Z,3.50
2017-12-11T15:55:52.983Z,3.60
2017-12-11T15:58:21.272Z,3.60
2017-12-11T16:00:49.592Z,3.50
2017-12-11T16:03:17.875Z,3.50
2017-12-11T16:05:46.190Z,3.60
2017-12-11T16:08:15.264Z,3.60
2017-12-11T16:10:43.730Z,3.60
2017-12-11T16:13:12.006Z,3.60
2017-12-11T16:15:40.303Z,3.50
2017-12-11T16:18:08.636Z,3.50
2017-12-11T16:20:38.522Z,3.50
2017-12-11T16:23:06.820Z,3.50
2017-12-11T16:25:35.106Z,3.50
2017-12-11T16:28:03.507Z,3.50
2017-12-11T16:30:31.794Z,3.60
2017-12-11T16:33:00.161Z,3.80
2017-12-11T16:35:28.448Z,3.80
2017-12-11T16:37:56.738Z,3.90
2017-12-11T16:40:25.213Z,4.00
2017-12-11T16:42:53.479Z,3.90
2017-12-11T16:45:21.762Z,4.00
2017-12-11T16:47:51.370Z,3.90
2017-12-11T16:50:19.668Z,4.00
2017-12-11T16:52:47.954Z,4.00
2017-12-11T16:55:16.279Z,4.00
2017-12-11T16:57:44.572Z,4.20
2017-12-11T17:00:12.924Z,4.30
2017-12-11T17:02:41.215Z,4.40
2017-12-11T17:05:09.507Z,4.30
2017-12-11T17:07:39.350Z,4.20
2017-12-11T17:10:08.472Z,4.00
2017-12-11T17:12:36.747Z,4.00
2017-12-11T17:15:05.074Z,3.80
2017-12-11T17:17:33.404Z,3.80
2017-12-11T17:20:01.876Z,3.90
2017-12-11T17:22:30.167Z,4.00
2017-12-11T17:24:58.459Z,4.10
2017-12-11T17:27:26.960Z,4.10
2017-12-11T17:29:55.261Z,4.10
2017-12-11T17:32:23.544Z,4.20
2017-12-11T17:34:51.869Z,4.10
2017-12-11T17:37:20.158Z,4.10
2017-12-11T17:39:48.481Z,4.30
2017-12-11T17:42:16.788Z,4.20
2017-12-11T17:44:45.892Z,4.20
2017-12-11T17:47:14.186Z,4.20
2017-12-11T17:49:42.576Z,4.20
2017-12-11T17:52:12.419Z,4.30
2017-12-11T17:54:40.702Z,4.30
2017-12-11T17:57:09.101Z,4.40
2017-12-11T17:59:38.162Z,4.30
2017-12-11T18:02:06.445Z,4.30
2017-12-11T18:04:34.778Z,4.20
2017-12-11T18:07:03.071Z,4.20
2017-12-11T18:09:31.407Z,4.30
2017-12-11T18:11:59.690Z,4.40
2017-12-11T18:14:28.051Z,4.40
2017-12-11T18:16:57.110Z,4.30
2017-12-11T18:19:25.407Z,4.30
2017-12-11T18:21:53.731Z,4.40
2017-12-11T18:24:22.107Z,4.50
2017-12-11T18:26:50.400Z,4.50
2017-12-11T18:29:18.688Z,4.60
2017-12-11T18:31:47.018Z,4.60
2017-12-11T18:34:15.354Z,4.60
2017-12-11T18:36:43.679Z,4.70
2017-12-11T18:39:12.795Z,4.70
2017-12-11T18:41:41.851Z,4.70
2017-12-11T18:44:10.251Z,4.70
2017-12-11T18:46:38.659Z,4.70
2017-12-11T18:49:06.951Z,4.70
2017-12-11T18:51:35.239Z,4.70
2017-12-11T18:54:03.727Z,4.80
2017-12-11T18:56:32.019Z,4.90
2017-12-11T18:59:00.311Z,4.80
2017-12-11T19:01:28.634Z,5.00
2017-12-11T19:03:56.968Z,5.00
2017-12-11T19:06:25.260Z,5.10
2017-12-11T19:08:53.581Z,5.20
2017-12-11T19:11:22.634Z,5.20
2017-12-11T19:13:50.954Z,5.10
2017-12-11T19:16:19.254Z,5.20
2017-12-11T19:18:47.586Z,5.20
2017-12-11T19:21:15.916Z,5.30
2017-12-11T19:23:44.211Z,5.40
2017-12-11T19:26:12.566Z,5.30
2017-12-11T19:28:40.867Z,5.40
2017-12-11T19:31:09.155Z,5.40
2017-12-11T19:33:37.502Z,5.40
2017-12-11T19:36:06.608Z,5.50
2017-12-11T19:38:34.863Z,5.50
2017-12-11T19:41:03.190Z,5.50
2017-12-11T19:43:32.375Z,5.50
2017-12-11T19:46:02.199Z,5.50
2017-12-11T19:48:30.546Z,5.50
2017-12-11T19:50:58.822Z,5.50
2017-12-11T19:53:27.153Z,5.50
2017-12-11T19:55:55.445Z,5.60
2017-12-11T19:58:23.802Z,5.60
2017-12-11T20:00:52.088Z,5.60
2017-12-11T20:03:20.410Z,5.50
2017-12-11T20:05:48.703Z,5.60
2017-12-11T20:08:17.040Z,5.50
2017-12-11T20:10:45.326Z,5.60
2017-12-11T20:13:13.650Z,5.60
2017-12-11T20:15:41.944Z,5.60
2017-12-11T20:18:10.303Z,5.50
2017-12-11T20:20:39.494Z,5.50
2017-12-11T20:23:08.552Z,5.60
2017-12-11T20:25:37.078Z,5.60
2017-12-11T20:28:05.406Z,5.60
2017-12-11T20:30:33.680Z,5.60
2017-12-11T20:33:02.767Z,5.70
2017-12-11T20:35:31.059Z,5.70
2017-12-11T20:37:59.538Z,5.70
2017-12-11T20:40:27.831Z,5.70
2017-12-11T20:42:56.124Z,5.60
2017-12-11T20:45:25.215Z,5.60
2017-12-11T20:47:53.579Z,5.60
2017-12-11T20:50:21.858Z,5.60
2017-12-11T20:52:50.139Z,5.70
2017-12-11T20:55:18.471Z,5.70
2017-12-11T20:57:46.750Z,5.70
2017-12-11T21:00:15.087Z,5.70
2017-12-11T21:02:44.143Z,5.70
2017-12-11T21:05:12.427Z,5.70
2017-12-11T21:07:40.756Z,5.70
2017-12-11T21:10:09.046Z,5.70
2017-12-11T21:12:37.378Z,5.70
2017-12-11T21:15:05.663Z,5.70
2017-12-11T21:17:33.995Z,5.80
2017-12-11T21:20:02.300Z,5.70
2017-12-11T21:22:30.631Z,5.70
2017-12-11T21:24:58.970Z,5.80
2017-12-11T21:27:27.258Z,5.70
2017-12-11T21:29:55.589Z,5.70
2017-12-11T21:32:23.871Z,5.70
2017-12-11T21:34:53.077Z,5.70
2017-12-11T21:37:22.123Z,5.80
2017-12-11T21:39:50.408Z,5.70
2017-12-11T21:42:18.743Z,5.80
2017-12-11T21:44:47.039Z,5.80
2017-12-11T21:47:15.318Z,5.80
2017-12-11T21:49:45.154Z,5.90
2017-12-11T21:52:14.452Z,5.90
2017-12-11T21:54:44.246Z,5.90
2017-12-11T21:57:12.547Z,5.90
2017-12-11T21:59:40.866Z,6.00
2017-12-11T22:02:09.228Z,6.00
2017-12-11T22:04:37.519Z,5.90
2017-12-11T22:07:05.803Z,6.00
2017-12-11T22:09:34.140Z,6.00
2017-12-11T22:12:03.263Z,6.00
2017-12-11T22:14:32.312Z,6.10
2017-12-11T22:17:00.594Z,6.00
2017-12-11T22:19:29.117Z,6.10
2017-12-11T22:21:58.939Z,6.10
2017-12-11T22:24:27.227Z,6.10
2017-12-11T22:26:55.615Z,6.20
2017-12-11T22:29:24.103Z,6.30
2017-12-11T22:31:52.383Z,6.30
2017-12-11T22:34:20.686Z,6.20
2017-12-11T22:36:49.119Z,6.30
2017-12-11T22:39:18.173Z,6.30
2017-12-11T22:41:46.463Z,6.30
2017-12-11T22:44:14.818Z,6.30
2017-12-11T22:46:43.147Z,6.40
2017-12-11T22:49:11.454Z,6.40
2017-12-11T22:51:39.837Z,6.50
2017-12-11T22:54:09.132Z,6.40
2017-12-11T22:56:37.435Z,6.50
2017-12-11T22:59:07.059Z,6.50
2017-12-11T23:01:35.451Z,6.40
2017-12-11T23:04:03.738Z,6.40
2017-12-11T23:06:32.066Z,6.50
2017-12-11T23:09:00.397Z,6.40
2017-12-11T23:11:28.722Z,6.40
2017-12-11T23:13:57.112Z,6.40
2017-12-11T23:16:26.219Z,6.40
2017-12-11T23:18:54.498Z,6.40
2017-12-11T23:21:22.782Z,6.40
2017-12-11T23:23:51.134Z,6.50
2017-12-11T23:26:19.430Z,6.50
2017-12-11T23:28:47.715Z,6.50
2017-12-11T23:31:16.047Z,6.50
2017-12-11T23:33:44.530Z,6.40
2017-12-11T23:36:14.330Z,6.50
2017-12-11T23:38:42.618Z,6.50
2017-12-11T23:41:10.964Z,6.50
2017-12-11T23:43:40.020Z,6.50
2017-12-11T23:46:08.359Z,6.40
2017-12-11T23:48:37.439Z,6.50
2017-12-11T23:51:05.788Z,6.50
2017-12-11T23:53:34.071Z,6.50
2017-12-11T23:56:02.346Z,6.50
2017-12-11T23:58:30.682Z,6.60
